• Join FlightAware (Why Join?)
  • Login
  • US Flag 
10:21PM EDT


 

Airport Tracker/Info


-or-


 

Live Flight TrackerFlight Track Log ✈ SWA559 ✈ 11-May-2013 ✈ KLAX - KDEN

Flight Track Log - Related Links

Times and Time Zones

All times are in EDT time to prevent confusion due to time zone crossing. See the SWA559 flight status page for this flight to view local times or setup timezone preferences in your user account.

Time Position Orientation Groundspeed Altitude Reporting Facility
EDT Latitude Longitude Course Direction KTS MPH feet Rate Location/Type
01:47PM 33.9500 -118.4667 59° Northeast 181 208 1,300  Level Southern California TRACON
01:48PM 33.9333 -118.5333 253° West 234 269 3,700 2,460 Climbing Southern California TRACON
01:50PM 33.8844 -118.5614 205° Southwest 260 299 6,800 2,820 Climbing Los Angeles Center
01:51PM 33.9050 -118.4822 73° East 247 284 10,200 2,700 Climbing Los Angeles Center
01:52PM 33.9486 -118.4064 55° Northeast 269 310 12,400 1,800 Climbing Los Angeles Center
01:53PM 34.2689 -117.8289 59° Northeast  Level FlightAware Approximate
01:53PM 33.9969 -118.3203 56° Northeast 302 348 14,000  Level Los Angeles Center
01:54PM 34.0567 -118.2139 56° Northeast 376 433 15,400 1,680 Climbing Los Angeles Center
01:55PM 34.1175 -118.1083 55° Northeast 382 440 17,500 1,980 Climbing Los Angeles Center
01:56PM 34.1800 -117.9958 56° Northeast 398 458 19,600 1,980 Climbing Los Angeles Center
01:57PM 34.2450 -117.8814 55° Northeast 410 472 21,600 1,920 Climbing Los Angeles Center
01:58PM 34.3214 -117.7431 56° Northeast 413 475 23,600 1,620 Climbing Los Angeles Center
01:59PM 34.3878 -117.6253 56° Northeast 421 484 25,000 1,680 Climbing Los Angeles Center
02:00PM 34.4597 -117.5094 53° Northeast 421 484 27,100 2,040 Climbing Los Angeles Center
02:01PM 34.5325 -117.4089 49° Northeast 404 465 29,300 1,740 Climbing Los Angeles Center
02:02PM 34.6025 -117.3078 50° Northeast 396 456 30,800 1,500 Climbing Los Angeles Center
02:03PM 34.6719 -117.2089 49° Northeast 390 449 32,400 1,500 Climbing Los Angeles Center
02:04PM 34.7419 -117.1114 49° Northeast 387 445 34,000 1,200 Climbing Los Angeles Center
02:05PM 34.8217 -116.9967 50° Northeast 378 435 35,000 480 Climbing Los Angeles Center
02:06PM 34.8883 -116.9028 49° Northeast 371 427 35,100 600 Climbing Los Angeles Center
02:07PM 34.9542 -116.8075 50° Northeast 370 426 36,300 900 Climbing Los Angeles Center
02:08PM 35.0200 -116.7136 49° Northeast 367 422 37,000 300 Climbing Los Angeles Center
02:09PM 35.0850 -116.6194 50° Northeast 366 421 37,000  Level Los Angeles Center
02:10PM 35.1628 -116.5064 50° Northeast 364 419 37,000  Level Los Angeles Center
02:11PM 35.2294 -116.4139 49° Northeast 364 419 37,000  Level Los Angeles Center
02:12PM 35.2950 -116.3181 50° Northeast 367 422 37,000  Level Los Angeles Center
02:13PM 35.3594 -116.2236 50° Northeast 363 418 37,000  Level Los Angeles Center
02:14PM 35.4219 -116.1289 51° Northeast 361 415 37,000  Level Los Angeles Center
02:15PM 35.4897 -116.0350 48° Northeast 365 420 37,000  Level Los Angeles Center
02:16PM 35.5658 -115.9225 50° Northeast 361 415 37,000  Level Los Angeles Center
02:17PM 35.6292 -115.8311 50° Northeast 356 410 37,000  Level Los Angeles Center
02:19PM 35.6939 -115.7372 50° Northeast 357 411 37,000  Level Los Angeles Center
02:20PM 35.7578 -115.6403 51° Northeast 362 417 37,000  Level Los Angeles Center
02:21PM 35.8361 -115.5250 50° Northeast 366 421 37,000  Level Los Angeles Center
02:22PM 35.9008 -115.4278 51° Northeast 368 423 37,000  Level Los Angeles Center
02:23PM 35.9661 -115.3306 50° Northeast 367 422 37,000  Level Los Angeles Center
02:24PM 36.0300 -115.2350 50° Northeast 362 417 37,000  Level Los Angeles Center
02:25PM 36.0883 -115.1300 55° Northeast 372 428 37,000  Level Los Angeles Center
02:26PM 36.1331 -114.9847 69° East 378 435 37,000  Level Los Angeles Center
02:27PM 36.1694 -114.8633 70° East 377 434 37,000  Level Los Angeles Center
02:28PM 36.2069 -114.7431 69° East 376 433 37,000  Level Los Angeles Center
02:29PM 36.2439 -114.6225 69° East 376 433 37,000  Level Los Angeles Center
02:30PM 36.2811 -114.5017 69° East 376 433 37,000  Level Los Angeles Center
02:31PM 36.3181 -114.3783 70° East 380 437 37,000  Level Los Angeles Center
02:32PM 36.3628 -114.2303 69° East 382 440 37,000  Level Los Angeles Center
02:33PM 36.3992 -114.1069 70° East 382 440 37,000  Level Los Angeles Center
02:34PM 36.4361 -113.9844 69° East 381 438 37,000  Level Los Angeles Center
02:35PM 36.4725 -113.8611 70° East 381 438 37,000  Level Los Angeles Center
02:36PM 36.5136 -113.7203 70° East 383 441 37,000  Level Los Angeles Center
02:37PM 36.5500 -113.5981 70° East 381 438 37,000  Level Los Angeles Center
02:38PM 36.5869 -113.4739 70° East 383 441 37,000  Level Los Angeles Center
02:39PM 36.6231 -113.3503 70° East 382 440 37,000  Level Los Angeles Center
02:40PM 36.6594 -113.2239 70° East 387 445 37,000  Level Los Angeles Center
02:41PM 36.7033 -113.0733 70° East 388 447 37,000  Level Los Angeles Center
02:42PM 36.7403 -112.9464 70° East 390 449 37,000  Level Los Angeles Center
02:43PM 36.7769 -112.8183 70° East 394 453 37,000  Level Los Angeles Center
02:44PM 36.8128 -112.6903 71° East 394 453 37,000  Level Los Angeles Center
02:45PM 36.8492 -112.5622 70° East 394 453 37,000  Level Los Angeles Center
02:46PM 36.8864 -112.4339 70° East 396 456 37,000  Level Los Angeles Center
02:47PM 36.9294 -112.2803 71° East 393 452 37,000  Level Los Angeles Center
02:49PM 36.9658 -112.1519 70° East 394 453 37,000  Level Los Angeles Center
02:50PM 37.0014 -112.0225 71° East 395 455 37,000  Level Los Angeles Center
02:50PM 37.0103 -111.9953 68° East 398 458 37,000  Level Denver Center
02:51PM 37.0608 -111.8128 71° East 398 458 37,000  Level Denver Center
02:52PM 37.0967 -111.6833 71° East 397 457 37,000  Level Denver Center
02:53PM 37.1311 -111.5831 67° East 393 452 37,000  Level Denver Center
02:54PM 37.1847 -111.4364 65° Northeast 389 448 37,000  Level Denver Center
02:55PM 37.2317 -111.3117 65° Northeast 395 455 37,000  Level Denver Center
02:56PM 37.2783 -111.1867 65° Northeast 398 458 37,000  Level Denver Center
02:57PM 37.3253 -111.0594 65° Northeast 402 463 37,000  Level Denver Center
02:58PM 37.3814 -110.9064 65° Northeast 404 465 37,000  Level Denver Center
02:59PM 37.4289 -110.7792 65° Northeast 403 464 37,000  Level Denver Center
03:00PM 37.4761 -110.6511 65° Northeast 405 466 37,000  Level Denver Center
03:01PM 37.5236 -110.5181 66° East 408 470 37,000  Level Denver Center
03:02PM 37.5683 -110.3936 66° East 407 468 37,000  Level Denver Center
03:03PM 37.6217 -110.2483 65° Northeast 409 471 37,000  Level Denver Center
03:04PM 37.6658 -110.1222 66° East 410 472 37,000  Level Denver Center
03:05PM 37.7033 -110.0186 65° Northeast 407 468 37,000  Level Denver Center
03:06PM 37.7631 -109.8500 66° East 410 472 37,000  Level Denver Center
03:07PM 37.8086 -109.7219 66° East 414 476 37,000  Level Denver Center
03:09PM 37.8603 -109.5744 66° East 412 474 37,000  Level Denver Center
03:10PM 37.9056 -109.4472 66° East 414 476 37,000  Level Denver Center
03:11PM 37.9572 -109.2975 66° East 414 476 37,000  Level Denver Center
03:12PM 38.0014 -109.1708 66° East 413 475 37,000  Level Denver Center
03:13PM 38.0544 -109.0211 66° East 415 478 37,000  Level Denver Center
03:14PM 38.0983 -108.8914 67° East 419 482 37,000  Level Denver Center
03:15PM 38.1419 -108.7642 66° East 414 476 37,000  Level Denver Center
03:16PM 38.1933 -108.6139 66° East 415 478 37,000  Level Denver Center
03:17PM 38.2367 -108.4836 67° East 418 481 37,000  Level Denver Center
03:18PM 38.2733 -108.3769 66° East 415 478 37,000  Level Denver Center
03:19PM 38.3317 -108.2069 66° East 411 473 37,000  Level Denver Center
03:20PM 38.3811 -108.0572 67° East 410 472 37,000  Level Denver Center
03:21PM 38.4233 -107.9289 67° East 411 473 37,000  Level Denver Center
03:22PM 38.4594 -107.8222 67° East 411 473 37,000 -360 Level Denver Center
03:23PM 38.5158 -107.6514 67° East 410 472 36,300 -840 Descending Denver Center
03:24PM 38.5561 -107.5281 67° East 399 459 35,300 -1,020 Descending Denver Center
03:25PM 38.6036 -107.3819 67° East 398 458 34,300 -960 Descending Denver Center
03:26PM 38.6456 -107.2550 67° East 402 463 33,400 -900 Descending Denver Center
03:27PM 38.6875 -107.1253 67° East 415 478 32,500 -900 Descending Denver Center
03:28PM 38.7325 -106.9883 67° East 417 480 31,600 -1,020 Descending Denver Center
03:29PM 38.7858 -106.8189 68° East 427 491 30,500 -1,080 Descending Denver Center
03:30PM 38.8314 -106.6769 68° East 431 496 29,500 -1,020 Descending Denver Center
03:31PM 38.8753 -106.5358 68° East 429 494 28,500 -1,020 Descending Denver Center
03:32PM 38.9250 -106.3822 67° East 431 496 27,500 -780 Descending Denver Center
03:33PM 38.9600 -106.2697 68° East 429 494 27,000 -360 Descending Denver Center
03:34PM 39.0083 -106.1136 68° East 423 487 26,700 -780 Descending Denver Center
03:35PM 39.0672 -105.9247 68° East 408 470 25,300 -1,200 Descending Denver Center
03:36PM 39.1017 -105.8161 68° East 375 432 24,300 -1,080 Descending Denver Center
03:37PM 39.1392 -105.6914 69° East 341 392 23,200 -960 Descending Denver Center
03:39PM 39.1769 -105.5686 68° East 366 421 22,400 -1,020 Descending Denver Center
03:40PM 39.2183 -105.4319 69° East 380 437 21,200 -1,080 Descending Denver Center
03:41PM 39.2544 -105.3197 67° East 337 388 20,200 -1,080 Descending Denver Center
03:42PM 39.3281 -105.2372 41° Northeast 327 376 19,100 -1,020 Descending Denver Center
03:43PM 39.3994 -105.1639 38° Northeast 328 377 18,200 -1,080 Descending Denver Center
03:44PM 39.4728 -105.0961 35° Northeast 326 375 17,000 -600 Descending Denver Center
03:45PM 39.5450 -105.0236 38° Northeast 306 352 17,000 -720 Level Denver Center
03:46PM 39.6111 -104.9581 37° Northeast 300 345 15,600 -1,380 Descending Denver Center
03:47PM 39.6733 -104.8967 37° Northeast 284 327 14,200 -1,320 Descending Denver Center
03:48PM 39.7408 -104.8414 32° Northeast 266 306 13,000 -1,080 Descending Denver Center
03:49PM 39.8083 -104.8411 360° North 243 280 12,000 -600 Descending Denver Center
03:50PM 39.8739 -104.8400 North 235 270 11,800 -540 Descending Denver Center
03:51PM 39.9417 -104.8386 North 241 277 11,000 -1,140 Descending Denver Center
03:52PM 40.0144 -104.8406 359° North 242 278 9,500 -1,020 Descending Denver Center
03:53PM 40.0817 -104.8386 North 242 278 9,000 -300 Descending Denver Center
03:54PM 40.1314 -104.8039 28° Northeast 221 254 9,000 -540 Level Denver Center
03:55PM 40.1017 -104.7344 119° Southeast 223 257 8,000 -540 Descending Denver Center
03:56PM 40.0511 -104.7033 155° Southeast 202 232 8,000 -420 Level Denver Center
03:57PM 39.9958 -104.6950 173° South 208 239 7,200 -840 Descending Denver Center
03:58PM 39.9461 -104.6956 180° South 173 199 6,300 -780 Descending Denver Center
03:59PM 39.9042 -104.6958 180° South 154 177 5,600 -720 Descending Denver Center
04:01PM 39.8617 -104.6732 159° South  Level Estimated
04:08PM 39.8617 -104.6732 159° South  Level Estimated
04:09PM 39.8617 -104.6732 159° South  Level Estimated
04:10PM 39.8617 -104.6732 159° South  Level Estimated